createdAt,value
2018-09-22T00:01:10.010Z,18.50
2018-09-22T00:03:39.140Z,18.50
2018-09-22T00:06:08.184Z,18.50
2018-09-22T00:08:37.226Z,18.50
2018-09-22T00:11:06.282Z,18.50
2018-09-22T00:13:35.440Z,18.50
2018-09-22T00:16:04.875Z,18.50
2018-09-22T00:18:33.952Z,18.50
2018-09-22T00:21:03.104Z,18.50
2018-09-22T00:23:32.180Z,18.50
2018-09-22T00:26:01.316Z,18.40
2018-09-22T00:28:30.491Z,18.40
2018-09-22T00:30:59.625Z,18.40
2018-09-22T00:33:28.685Z,18.40
2018-09-22T00:35:57.784Z,18.30
2018-09-22T00:38:26.896Z,18.30
2018-09-22T00:40:56.095Z,18.20
2018-09-22T00:43:25.238Z,18.20
2018-09-22T00:45:54.265Z,18.10
2018-09-22T00:48:23.385Z,18.00
2018-09-22T00:50:52.486Z,17.70
2018-09-22T00:53:21.605Z,17.50
2018-09-22T00:55:50.648Z,17.30
2018-09-22T00:58:19.753Z,17.10
2018-09-22T01:00:49.755Z,16.80
2018-09-22T01:03:18.897Z,16.60
2018-09-22T01:05:47.993Z,16.40
2018-09-22T01:08:17.194Z,16.20
2018-09-22T01:10:46.247Z,16.00
2018-09-22T01:13:15.340Z,15.80
2018-09-22T01:15:44.432Z,15.50
2018-09-22T01:18:13.545Z,15.30
2018-09-22T01:20:42.590Z,15.20
2018-09-22T01:23:11.670Z,15.00
2018-09-22T01:25:40.788Z,14.80
2018-09-22T01:28:09.936Z,14.60
2018-09-22T01:30:39.049Z,14.40
2018-09-22T01:33:08.209Z,14.20
2018-09-22T01:35:37.269Z,14.10
2018-09-22T01:38:06.327Z,13.90
2018-09-22T01:40:35.476Z,13.70
2018-09-22T01:43:04.662Z,13.60
2018-09-22T01:45:33.896Z,13.50
2018-09-22T01:48:03.053Z,13.40
2018-09-22T01:50:32.370Z,13.30
2018-09-22T01:53:01.499Z,13.20
2018-09-22T01:55:30.604Z,13.20
2018-09-22T01:57:59.707Z,13.10
2018-09-22T02:00:28.898Z,13.10
2018-09-22T02:02:58.084Z,13.10
2018-09-22T02:05:27.107Z,13.10
2018-09-22T02:07:56.332Z,13.00
2018-09-22T02:10:25.415Z,13.10
2018-09-22T02:12:54.602Z,13.10
2018-09-22T02:15:23.827Z,13.10
2018-09-22T02:17:52.966Z,13.10
2018-09-22T02:20:22.119Z,13.00
2018-09-22T02:22:51.214Z,13.00
2018-09-22T02:25:20.318Z,13.00
2018-09-22T02:27:49.438Z,13.00
2018-09-22T02:30:18.629Z,13.00
2018-09-22T02:32:47.650Z,13.00
2018-09-22T02:35:16.752Z,13.00
2018-09-22T02:37:45.860Z,13.00
2018-09-22T02:40:14.940Z,13.10
2018-09-22T02:42:44.000Z,13.10
2018-09-22T02:45:13.100Z,13.10
2018-09-22T02:47:42.147Z,13.10
2018-09-22T02:50:11.201Z,13.10
2018-09-22T02:52:40.269Z,13.10
2018-09-22T02:55:09.359Z,13.10
2018-09-22T02:57:38.537Z,13.10
2018-09-22T03:00:07.639Z,13.10
2018-09-22T03:02:36.755Z,13.10
2018-09-22T03:05:05.845Z,13.10
2018-09-22T03:07:34.904Z,13.10
2018-09-22T03:10:03.972Z,13.10
2018-09-22T03:12:33.043Z,13.10
2018-09-22T03:15:02.379Z,13.10
2018-09-22T03:17:31.528Z,13.10
2018-09-22T03:20:00.580Z,13.10
2018-09-22T03:22:29.694Z,13.00
2018-09-22T03:24:58.746Z,13.00
2018-09-22T03:27:27.829Z,13.00
2018-09-22T03:29:56.912Z,13.00
2018-09-22T03:32:30.516Z,13.00
2018-09-22T03:34:59.630Z,12.90
2018-09-22T03:37:28.681Z,12.90
2018-09-22T03:39:57.799Z,12.90
2018-09-22T03:42:26.834Z,12.80
2018-09-22T03:44:55.999Z,12.80
2018-09-22T03:47:25.068Z,12.80
2018-09-22T03:49:54.061Z,12.80
2018-09-22T03:52:23.114Z,12.80
2018-09-22T03:54:52.184Z,12.70
2018-09-22T03:57:21.318Z,12.60
2018-09-22T03:59:50.402Z,12.50
2018-09-22T04:02:19.499Z,12.50
2018-09-22T04:04:48.520Z,12.40
2018-09-22T04:07:17.592Z,12.40
2018-09-22T04:09:46.664Z,12.30
2018-09-22T04:12:15.702Z,12.30
2018-09-22T04:14:44.742Z,12.30
2018-09-22T04:17:13.768Z,12.20
2018-09-22T04:19:49.051Z,12.20
2018-09-22T04:22:18.052Z,12.20
2018-09-22T04:24:47.444Z,12.20
2018-09-22T04:27:16.495Z,12.20
2018-09-22T04:29:45.561Z,12.20
2018-09-22T04:32:14.684Z,12.20
2018-09-22T04:34:43.719Z,12.20
2018-09-22T04:37:12.834Z,12.10
2018-09-22T04:39:41.888Z,12.10
2018-09-22T04:42:10.954Z,12.10
2018-09-22T04:44:40.047Z,12.00
2018-09-22T04:47:09.142Z,12.00
2018-09-22T04:49:38.104Z,12.10
2018-09-22T04:52:07.453Z,12.00
2018-09-22T04:54:36.508Z,12.00
2018-09-22T04:57:05.589Z,12.10
2018-09-22T04:59:34.674Z,12.00
2018-09-22T05:02:03.928Z,12.00
2018-09-22T05:04:33.063Z,12.10
2018-09-22T05:07:02.208Z,12.10
2018-09-22T05:09:31.328Z,12.10
2018-09-22T05:12:00.363Z,12.00
2018-09-22T05:14:29.428Z,12.00
2018-09-22T05:16:58.511Z,12.00
2018-09-22T05:19:27.477Z,12.00
2018-09-22T05:21:56.578Z,12.00
2018-09-22T05:24:25.651Z,12.00
2018-09-22T05:26:54.772Z,12.00
2018-09-22T05:29:23.893Z,12.00
2018-09-22T05:31:53.022Z,12.00
2018-09-22T05:34:22.082Z,12.00
2018-09-22T05:36:51.165Z,12.00
2018-09-22T05:39:20.189Z,12.00
2018-09-22T05:41:49.282Z,12.10
2018-09-22T05:44:18.411Z,12.00
2018-09-22T05:46:47.477Z,12.00
2018-09-22T05:49:16.624Z,12.00
2018-09-22T05:51:45.661Z,12.00
2018-09-22T05:54:14.775Z,12.00
2018-09-22T05:56:43.818Z,12.10
2018-09-22T05:59:12.892Z,12.10
2018-09-22T06:01:41.940Z,12.10
2018-09-22T06:04:11.064Z,12.10
2018-09-22T06:06:40.098Z,12.10
2018-09-22T06:09:10.467Z,12.10
2018-09-22T06:11:39.589Z,12.10
2018-09-22T06:14:08.682Z,12.10
2018-09-22T06:16:37.764Z,12.10
2018-09-22T06:19:07.222Z,12.10
2018-09-22T06:21:36.352Z,12.10
2018-09-22T06:24:05.412Z,12.10
2018-09-22T06:26:34.476Z,12.20
2018-09-22T06:29:03.659Z,12.20
2018-09-22T06:31:32.753Z,12.20
2018-09-22T06:34:02.087Z,12.20
2018-09-22T06:36:31.283Z,12.20
2018-09-22T06:39:08.452Z,12.30
2018-09-22T06:41:37.553Z,12.30
2018-09-22T06:44:06.625Z,12.30
2018-09-22T06:46:35.730Z,12.30
2018-09-22T06:49:04.852Z,12.30
2018-09-22T06:51:33.856Z,12.40
2018-09-22T06:54:02.988Z,12.40
2018-09-22T06:56:32.040Z,12.40
2018-09-22T06:59:01.065Z,12.50
2018-09-22T07:01:30.094Z,12.50
2018-09-22T07:03:59.152Z,12.60
2018-09-22T07:06:28.213Z,12.60
2018-09-22T07:08:57.253Z,12.70
2018-09-22T07:11:26.353Z,12.70
2018-09-22T07:13:55.665Z,12.80
2018-09-22T07:16:24.760Z,12.90
2018-09-22T07:18:53.746Z,13.00
2018-09-22T07:21:27.860Z,13.10
2018-09-22T07:23:56.881Z,13.20
2018-09-22T07:26:26.011Z,13.30
2018-09-22T07:28:55.080Z,13.40
2018-09-22T07:31:24.131Z,13.50
2018-09-22T07:33:53.164Z,13.50
2018-09-22T07:36:22.183Z,13.60
2018-09-22T07:38:51.244Z,13.70
2018-09-22T07:41:20.680Z,13.80
2018-09-22T07:43:49.714Z,13.90
2018-09-22T07:46:18.799Z,13.90
2018-09-22T07:48:47.954Z,14.00
2018-09-22T07:51:17.279Z,13.90
2018-09-22T07:53:46.239Z,13.90
2018-09-22T07:56:21.534Z,14.00
2018-09-22T07:58:50.557Z,14.00
2018-09-22T08:01:19.597Z,14.00
2018-09-22T08:03:48.753Z,14.10
2018-09-22T08:06:17.779Z,14.10
2018-09-22T08:08:49.831Z,14.10
2018-09-22T08:11:29.312Z,14.10
2018-09-22T08:13:58.407Z,14.20
2018-09-22T08:16:27.496Z,14.40
2018-09-22T08:18:56.599Z,14.60
2018-09-22T08:21:25.768Z,14.70
2018-09-22T08:23:54.794Z,14.90
2018-09-22T08:26:23.924Z,15.00
2018-09-22T08:28:52.989Z,15.10
2018-09-22T08:31:22.065Z,15.10
2018-09-22T08:33:51.120Z,15.10
2018-09-22T08:36:20.528Z,15.00
2018-09-22T08:38:49.393Z,15.00
2018-09-22T08:41:18.447Z,14.90
2018-09-22T08:43:47.568Z,15.00
2018-09-22T08:46:16.799Z,15.00
2018-09-22T08:48:45.836Z,15.00
2018-09-22T08:51:14.991Z,15.10
2018-09-22T08:53:44.018Z,15.20
2018-09-22T08:56:13.204Z,15.30
2018-09-22T08:58:46.265Z,15.50
2018-09-22T09:01:15.529Z,15.60
2018-09-22T09:03:44.640Z,15.50
2018-09-22T09:06:13.724Z,15.50
2018-09-22T09:08:42.766Z,15.50
2018-09-22T09:11:11.932Z,15.70
2018-09-22T09:13:41.021Z,15.80
2018-09-22T09:16:10.131Z,15.90
2018-09-22T09:18:39.250Z,16.10
2018-09-22T09:21:08.446Z,16.20
2018-09-22T09:23:37.519Z,16.30
2018-09-22T09:26:06.600Z,16.40
2018-09-22T09:28:35.642Z,16.50
2018-09-22T09:31:04.781Z,16.40
2018-09-22T09:33:33.854Z,16.40
2018-09-22T09:36:03.034Z,16.40
2018-09-22T09:38:33.914Z,16.40
2018-09-22T09:41:02.973Z,16.30
2018-09-22T09:43:32.358Z,16.30
2018-09-22T09:46:05.580Z,16.30
2018-09-22T09:48:34.596Z,16.30
2018-09-22T09:51:03.663Z,16.40
2018-09-22T09:53:32.948Z,16.50
2018-09-22T09:56:02.002Z,16.50
2018-09-22T09:58:31.114Z,16.40
2018-09-22T10:01:00.298Z,16.50
2018-09-22T10:03:29.440Z,16.50
2018-09-22T10:05:58.516Z,16.50
2018-09-22T10:08:27.618Z,16.40
2018-09-22T10:10:56.720Z,16.50
2018-09-22T10:13:26.557Z,16.60
2018-09-22T10:15:55.574Z,16.50
2018-09-22T10:18:24.655Z,16.50
2018-09-22T10:20:53.739Z,16.50
2018-09-22T10:23:22.788Z,16.60
2018-09-22T10:25:51.953Z,16.70
2018-09-22T10:28:21.205Z,16.80
2018-09-22T10:30:50.273Z,16.90
2018-09-22T10:33:26.263Z,16.90
2018-09-22T10:35:55.382Z,17.00
2018-09-22T10:38:24.391Z,17.10
2018-09-22T10:40:53.552Z,17.30
2018-09-22T10:43:22.569Z,17.30
2018-09-22T10:45:51.746Z,17.40
2018-09-22T10:48:20.795Z,17.50
2018-09-22T10:50:50.028Z,17.60
2018-09-22T10:53:19.074Z,17.70
2018-09-22T10:55:48.129Z,17.90
2018-09-22T10:58:17.155Z,18.00
2018-09-22T11:00:46.428Z,18.20
2018-09-22T11:03:15.479Z,18.20
2018-09-22T11:05:44.562Z,18.30
2018-09-22T11:08:13.715Z,18.20
2018-09-22T11:10:42.770Z,17.90
2018-09-22T11:13:11.887Z,17.70
2018-09-22T11:15:41.038Z,17.30
2018-09-22T11:18:10.292Z,17.20
2018-09-22T11:20:39.309Z,17.20
2018-09-22T11:23:08.461Z,17.20
2018-09-22T11:25:37.554Z,17.20
2018-09-22T11:28:06.699Z,17.20
2018-09-22T11:30:35.969Z,17.40
2018-09-22T11:33:05.122Z,17.50
2018-09-22T11:35:34.207Z,17.60
2018-09-22T11:38:03.359Z,17.70
2018-09-22T11:40:32.438Z,17.80
2018-09-22T11:43:01.382Z,17.80
2018-09-22T11:45:30.416Z,17.80
2018-09-22T11:47:59.454Z,17.80
2018-09-22T11:50:28.512Z,17.80
2018-09-22T11:52:57.696Z,18.00
2018-09-22T11:55:26.765Z,18.00
2018-09-22T11:57:55.834Z,18.10
2018-09-22T12:00:24.871Z,18.10
2018-09-22T12:02:54.089Z,18.20
2018-09-22T12:05:23.218Z,18.40
2018-09-22T12:07:52.301Z,18.40
2018-09-22T12:10:21.415Z,18.50
2018-09-22T12:12:50.423Z,18.70
2018-09-22T12:15:19.526Z,18.90
2018-09-22T12:17:48.617Z,19.00
2018-09-22T12:20:17.715Z,19.20
2018-09-22T12:22:46.859Z,19.40
2018-09-22T12:25:15.934Z,19.40
2018-09-22T12:27:45.062Z,19.40
2018-09-22T12:30:14.112Z,19.40
2018-09-22T12:32:43.091Z,19.40
2018-09-22T12:35:12.209Z,19.60
2018-09-22T12:37:41.314Z,19.70
2018-09-22T12:40:10.449Z,19.80
2018-09-22T12:42:39.570Z,19.70
2018-09-22T12:45:08.744Z,19.90
2018-09-22T12:47:37.910Z,20.10
2018-09-22T12:50:07.013Z,20.40
2018-09-22T12:52:40.464Z,20.60
2018-09-22T12:55:09.600Z,20.60
2018-09-22T12:57:38.771Z,20.60
2018-09-22T13:00:07.975Z,20.80
2018-09-22T13:02:37.040Z,20.90
2018-09-22T13:05:06.397Z,20.90
2018-09-22T13:07:35.623Z,20.80
2018-09-22T13:10:04.809Z,20.80
2018-09-22T13:12:34.048Z,21.20
2018-09-22T13:15:03.109Z,21.60
2018-09-22T13:17:32.300Z,21.80
2018-09-22T13:20:01.485Z,21.80
2018-09-22T13:22:30.560Z,21.90
2018-09-22T13:24:59.730Z,21.90
2018-09-22T13:27:28.842Z,21.80
2018-09-22T13:29:57.885Z,21.60
2018-09-22T13:32:26.988Z,21.30
2018-09-22T13:34:56.053Z,21.00
2018-09-22T13:37:25.132Z,20.90
2018-09-22T13:39:54.242Z,20.80
2018-09-22T13:42:23.309Z,20.70
2018-09-22T13:44:52.304Z,20.40
2018-09-22T13:47:21.455Z,20.30
2018-09-22T13:49:50.499Z,20.10
2018-09-22T13:52:19.597Z,20.20
2018-09-22T13:54:48.811Z,20.40
2018-09-22T13:57:17.854Z,20.40
2018-09-22T13:59:47.043Z,20.30
2018-09-22T14:02:16.361Z,20.40
2018-09-22T14:04:45.480Z,20.40
2018-09-22T14:07:14.675Z,20.50
2018-09-22T14:09:43.860Z,20.70
2018-09-22T14:12:13.020Z,20.80
2018-09-22T14:14:42.253Z,20.80
2018-09-22T14:17:11.366Z,20.80
2018-09-22T14:19:40.460Z,20.80
2018-09-22T14:22:09.694Z,20.70
2018-09-22T14:24:38.857Z,20.60
2018-09-22T14:27:08.132Z,20.60
2018-09-22T14:29:37.348Z,20.60
2018-09-22T14:32:06.797Z,20.50
2018-09-22T14:34:35.961Z,20.40
2018-09-22T14:37:05.182Z,20.50
2018-09-22T14:39:34.323Z,20.50
2018-09-22T14:42:03.473Z,20.30
2018-09-22T14:44:32.567Z,20.10
2018-09-22T14:47:01.711Z,20.00
2018-09-22T14:49:30.860Z,19.70
2018-09-22T14:52:00.024Z,19.50
2018-09-22T14:54:29.128Z,19.20
2018-09-22T14:56:58.278Z,19.10
2018-09-22T14:59:27.510Z,19.00
2018-09-22T15:01:56.712Z,18.90
2018-09-22T15:04:25.912Z,18.90
2018-09-22T15:06:55.211Z,18.80
2018-09-22T15:09:24.393Z,18.80
2018-09-22T15:11:53.495Z,18.80
2018-09-22T15:14:22.615Z,18.70
2018-09-22T15:16:51.815Z,18.50
2018-09-22T15:19:20.872Z,18.40
2018-09-22T15:21:50.117Z,18.30
2018-09-22T15:24:19.218Z,18.30
2018-09-22T15:26:48.395Z,18.30
2018-09-22T15:29:17.619Z,18.30
2018-09-22T15:31:46.833Z,18.30
2018-09-22T15:34:16.005Z,18.30
2018-09-22T15:36:45.294Z,18.30
2018-09-22T15:39:14.542Z,18.30
2018-09-22T15:41:43.607Z,18.20
2018-09-22T15:44:12.814Z,18.10
2018-09-22T15:46:41.905Z,18.10
2018-09-22T15:49:11.154Z,18.00
2018-09-22T15:51:40.259Z,17.90
2018-09-22T15:54:09.464Z,17.80
2018-09-22T15:56:38.493Z,17.70
2018-09-22T15:59:07.604Z,17.60
2018-09-22T16:01:36.784Z,17.50
2018-09-22T16:04:06.033Z,17.50
2018-09-22T16:06:35.158Z,17.60
2018-09-22T16:09:05.489Z,17.70
2018-09-22T16:11:34.679Z,17.70
2018-09-22T16:14:03.799Z,17.70
2018-09-22T16:16:32.906Z,17.60
2018-09-22T16:19:02.198Z,17.50
2018-09-22T16:21:31.723Z,17.20
2018-09-22T16:24:01.777Z,17.00
2018-09-22T16:26:30.950Z,16.80
2018-09-22T16:29:00.014Z,16.60
2018-09-22T16:31:29.209Z,16.40
2018-09-22T16:33:58.339Z,16.20
2018-09-22T16:36:27.514Z,16.10
2018-09-22T16:38:56.615Z,16.00
2018-09-22T16:41:25.755Z,15.90
2018-09-22T16:43:54.838Z,15.80
2018-09-22T16:46:23.856Z,15.70
2018-09-22T16:48:53.049Z,15.70
2018-09-22T16:51:22.124Z,15.60
2018-09-22T16:53:51.410Z,15.50
2018-09-22T16:56:20.980Z,15.40
2018-09-22T16:58:50.177Z,15.40
2018-09-22T17:01:19.355Z,15.30
2018-09-22T17:03:48.480Z,15.30
2018-09-22T17:06:17.580Z,15.20
2018-09-22T17:08:46.757Z,15.10
2018-09-22T17:11:15.977Z,15.10
2018-09-22T17:13:45.139Z,15.10
2018-09-22T17:16:14.398Z,15.10
2018-09-22T17:18:43.512Z,15.10
2018-09-22T17:21:12.650Z,15.00
2018-09-22T17:23:41.940Z,14.90
2018-09-22T17:26:11.169Z,14.90
2018-09-22T17:28:40.302Z,14.90
2018-09-22T17:31:09.486Z,14.90
2018-09-22T17:33:38.570Z,14.80
2018-09-22T17:36:07.826Z,14.70
2018-09-22T17:38:36.946Z,14.70
2018-09-22T17:41:06.162Z,14.60
2018-09-22T17:43:35.214Z,14.60
2018-09-22T17:46:04.337Z,14.50
2018-09-22T17:48:33.440Z,14.40
2018-09-22T17:51:02.623Z,14.30
2018-09-22T17:53:31.913Z,14.30
2018-09-22T17:56:01.095Z,14.20
2018-09-22T17:58:30.314Z,14.20
2018-09-22T18:00:59.342Z,14.20
2018-09-22T18:03:28.467Z,14.10
2018-09-22T18:05:57.587Z,14.10
2018-09-22T18:08:26.696Z,14.10
2018-09-22T18:10:55.825Z,14.10
2018-09-22T18:13:24.966Z,14.10
2018-09-22T18:15:54.179Z,14.10
2018-09-22T18:18:23.274Z,14.10
2018-09-22T18:20:52.422Z,14.00
2018-09-22T18:23:21.909Z,14.10
2018-09-22T18:25:51.117Z,14.10
2018-09-22T18:28:20.244Z,14.10
2018-09-22T18:30:49.492Z,14.10
2018-09-22T18:33:18.765Z,14.10
2018-09-22T18:35:48.086Z,14.00
2018-09-22T18:38:17.269Z,14.00
2018-09-22T18:40:46.591Z,14.00
2018-09-22T18:43:15.861Z,13.90
2018-09-22T18:45:45.001Z,13.90
2018-09-22T18:48:14.089Z,13.90
2018-09-22T18:50:43.184Z,13.90
2018-09-22T18:53:12.239Z,13.90
2018-09-22T18:55:41.302Z,13.80
2018-09-22T18:58:10.333Z,13.80
2018-09-22T19:00:39.404Z,13.80
2018-09-22T19:03:08.510Z,13.80
2018-09-22T19:05:37.733Z,13.70
2018-09-22T19:08:07.024Z,13.70
2018-09-22T19:10:36.256Z,13.70
2018-09-22T19:13:06.634Z,13.60
2018-09-22T19:15:42.885Z,13.60
2018-09-22T19:18:29.714Z,13.60
2018-09-22T19:22:04.272Z,13.50
2018-09-22T19:24:43.225Z,13.50
2018-09-22T19:27:17.514Z,13.40
2018-09-22T19:29:51.693Z,13.40
2018-09-22T19:32:28.047Z,13.40
2018-09-22T19:35:00.360Z,13.40
2018-09-22T19:37:37.218Z,13.40
2018-09-22T19:40:12.333Z,13.40
2018-09-22T19:42:49.400Z,13.40
2018-09-22T19:45:22.957Z,13.40
2018-09-22T19:48:04.506Z,13.40
2018-09-22T19:50:38.957Z,13.30
2018-09-22T19:53:08.269Z,13.30
2018-09-22T19:55:37.562Z,13.30
2018-09-22T19:58:06.711Z,13.30
2018-09-22T20:00:35.874Z,13.30
2018-09-22T20:03:05.118Z,13.20
2018-09-22T20:05:34.460Z,13.20
2018-09-22T20:08:03.635Z,13.10
2018-09-22T20:10:32.861Z,13.10
2018-09-22T20:13:02.013Z,13.00
2018-09-22T20:15:31.069Z,13.00
2018-09-22T20:18:00.396Z,13.00
2018-09-22T20:20:29.534Z,12.90
2018-09-22T20:22:58.577Z,12.90
2018-09-22T20:25:27.765Z,12.90
2018-09-22T20:27:56.872Z,12.80
2018-09-22T20:30:26.146Z,12.80
2018-09-22T20:32:55.169Z,12.80
2018-09-22T20:35:24.269Z,12.80
2018-09-22T20:37:53.354Z,12.80
2018-09-22T20:40:22.496Z,12.80
2018-09-22T20:42:51.634Z,12.70
2018-09-22T20:45:20.811Z,12.70
2018-09-22T20:47:49.915Z,12.60
2018-09-22T20:50:19.205Z,12.60
2018-09-22T20:52:48.388Z,12.60
2018-09-22T20:55:17.505Z,12.50
2018-09-22T20:57:46.602Z,12.60
2018-09-22T21:00:15.667Z,12.50
2018-09-22T21:02:44.847Z,12.60
2018-09-22T21:05:13.906Z,12.60
2018-09-22T21:07:43.024Z,12.50
2018-09-22T21:10:12.139Z,12.50
2018-09-22T21:12:41.250Z,12.50
2018-09-22T21:15:10.346Z,12.50
2018-09-22T21:17:39.444Z,12.40
2018-09-22T21:20:08.537Z,12.40
2018-09-22T21:22:40.047Z,12.30
2018-09-22T21:25:09.331Z,12.30
2018-09-22T21:27:38.509Z,12.30
2018-09-22T21:30:07.611Z,12.30
2018-09-22T21:32:36.738Z,12.30
2018-09-22T21:35:06.045Z,12.20
2018-09-22T21:37:35.124Z,12.20
2018-09-22T21:40:04.167Z,12.20
2018-09-22T21:42:33.243Z,12.20
2018-09-22T21:45:02.337Z,12.20
2018-09-22T21:47:31.453Z,12.20
2018-09-22T21:50:00.568Z,12.30
2018-09-22T21:52:29.731Z,12.30
2018-09-22T21:55:03.214Z,12.30
2018-09-22T21:57:32.307Z,12.30
2018-09-22T22:00:01.440Z,12.30
2018-09-22T22:02:30.551Z,12.30
2018-09-22T22:04:59.767Z,12.30
2018-09-22T22:07:28.831Z,12.40
2018-09-22T22:09:57.954Z,12.40
2018-09-22T22:12:26.988Z,12.40
2018-09-22T22:14:56.094Z,12.40
2018-09-22T22:17:25.253Z,12.40
2018-09-22T22:19:54.287Z,12.40
2018-09-22T22:22:23.382Z,12.30
2018-09-22T22:24:52.477Z,12.30
2018-09-22T22:27:21.657Z,12.30
2018-09-22T22:29:50.831Z,12.30
2018-09-22T22:32:20.077Z,12.30
2018-09-22T22:34:49.293Z,12.30
2018-09-22T22:37:18.362Z,12.30
2018-09-22T22:39:47.429Z,12.20
2018-09-22T22:42:16.575Z,12.20
2018-09-22T22:44:45.714Z,12.20
2018-09-22T22:47:14.815Z,12.20
2018-09-22T22:49:43.972Z,12.20
2018-09-22T22:52:13.152Z,12.20
2018-09-22T22:54:42.288Z,12.20
2018-09-22T22:57:11.339Z,12.20
2018-09-22T22:59:40.441Z,12.20
2018-09-22T23:02:09.580Z,12.20
2018-09-22T23:04:38.798Z,12.20
2018-09-22T23:07:07.858Z,12.20
2018-09-22T23:09:36.990Z,12.20
2018-09-22T23:12:06.129Z,12.10
2018-09-22T23:14:35.192Z,12.10
2018-09-22T23:17:04.402Z,12.20
2018-09-22T23:19:33.567Z,12.20
2018-09-22T23:22:02.711Z,12.20
2018-09-22T23:24:31.846Z,12.20
2018-09-22T23:27:00.967Z,12.20
2018-09-22T23:29:30.046Z,12.20
2018-09-22T23:31:59.134Z,12.20
2018-09-22T23:34:28.213Z,12.10
2018-09-22T23:36:57.284Z,12.10
2018-09-22T23:39:26.401Z,12.10
2018-09-22T23:42:01.680Z,12.10
2018-09-22T23:44:30.809Z,12.10
2018-09-22T23:46:59.918Z,12.20
2018-09-22T23:49:29.119Z,12.20
2018-09-22T23:51:58.224Z,12.20
2018-09-22T23:54:27.307Z,12.10
2018-09-22T23:56:56.566Z,12.20
2018-09-22T23:59:25.611Z,12.10
